Time;durP1;ratioP1;P1;durP2;ratioP2;P2;SDS_P1;SDS_P2;PMS_P1;PMS_P2;Temp;Humidity;BMP_temperature;BMP_pressure;BME280_temperature;BME280_humidity;BME280_pressure;Samples;Min_cycle;Max_cycle;Signal;HPM_P1;HPM_P2
2023/08/14 00:01:14;;;;;;;11.10;3.30;;;;;;;21.17;58.32;100912.58;111266;1208;98904;-64
2023/08/14 00:03:39;;;;;;;11.80;3.40;;;;;;;21.17;58.23;100911.31;111110;1207;138599;-64
2023/08/14 00:06:05;;;;;;;9.90;3.10;;;;;;;21.18;58.27;100906.35;111191;1206;98929;-64
2023/08/14 00:08:30;;;;;;;8.50;2.90;;;;;;;21.18;58.29;100903.45;111351;1203;99038;-64
2023/08/14 00:10:55;;;;;;;8.30;3.40;;;;;;;21.18;58.35;100906.30;111112;1208;139380;-63
2023/08/14 00:13:21;;;;;;;7.70;3.10;;;;;;;21.20;58.26;100905.98;111306;1209;98999;-63
2023/08/14 00:15:48;;;;;;;9.30;3.50;;;;;;;21.22;58.09;100907.29;111166;1209;138591;-63
2023/08/14 00:18:13;;;;;;;7.80;3.50;;;;;;;21.24;58.10;100910.95;111267;1205;98984;-63
2023/08/14 00:20:38;;;;;;;9.50;3.90;;;;;;;21.27;58.04;100911.95;111269;1209;99117;-63
2023/08/14 00:23:04;;;;;;;13.40;4.00;;;;;;;21.28;58.08;100913.29;111062;1209;138229;-64
2023/08/14 00:25:29;;;;;;;9.90;3.80;;;;;;;21.29;58.02;100913.59;111281;1208;99031;-63
2023/08/14 00:27:54;;;;;;;9.40;3.80;;;;;;;21.29;58.03;100913.44;111217;1203;139629;-63
2023/08/14 00:30:20;;;;;;;11.90;3.10;;;;;;;21.27;58.01;100915.23;111198;1208;99089;-63
2023/08/14 00:32:45;;;;;;;10.60;3.60;;;;;;;21.26;58.16;100916.91;111354;1209;99032;-63
2023/08/14 00:35:11;;;;;;;11.10;3.50;;;;;;;21.25;58.08;100913.20;111091;1216;138428;-63
2023/08/14 00:37:44;;;;;;;8.20;3.50;;;;;;;21.25;57.89;100919.17;111218;1207;99330;-63
2023/08/14 00:40:11;;;;;;;8.80;3.50;;;;;;;21.25;58.07;100917.38;111218;1203;139258;-63
2023/08/14 00:42:38;;;;;;;8.00;3.10;;;;;;;21.26;58.05;100920.07;111313;1203;97787;-63
2023/08/14 00:45:05;;;;;;;7.40;3.40;;;;;;;21.26;58.07;100922.17;111303;1206;99047;-63
2023/08/14 00:47:32;;;;;;;10.40;3.30;;;;;;;21.27;57.87;100922.32;111256;1215;139367;-63
2023/08/14 00:49:57;;;;;;;7.00;3.30;;;;;;;21.26;57.99;100924.59;111321;1206;100404;-63
2023/08/14 00:52:22;;;;;;;8.10;3.40;;;;;;;21.25;57.98;100924.88;111218;1206;139335;-63
2023/08/14 00:54:48;;;;;;;8.70;3.40;;;;;;;21.23;58.05;100919.38;111273;1208;98955;-63
2023/08/14 00:57:13;;;;;;;12.70;3.40;;;;;;;21.23;57.98;100923.77;111277;1210;98890;-63
2023/08/14 00:59:38;;;;;;;10.70;3.70;;;;;;;21.22;58.01;100924.03;111191;1209;139142;-65
2023/08/14 01:02:04;;;;;;;7.20;3.20;;;;;;;21.21;58.22;100920.64;111226;1206;99231;-63
2023/08/14 01:04:29;;;;;;;8.60;3.20;;;;;;;21.21;58.13;100915.55;111201;1209;138604;-63
2023/08/14 01:06:54;;;;;;;5.50;2.80;;;;;;;21.18;58.15;100903.02;111165;1203;99065;-63
2023/08/14 01:09:20;;;;;;;8.20;3.10;;;;;;;21.15;58.16;100898.23;111264;1209;99314;-63
2023/08/14 01:12:07;;;;;;;9.00;3.20;;;;;;;21.11;58.18;100895.84;111184;1208;137856;-63
2023/08/14 01:14:34;;;;;;;10.50;3.20;;;;;;;21.09;58.23;100903.77;111254;1206;99352;-63
2023/08/14 01:17:03;;;;;;;6.40;2.50;;;;;;;21.09;58.09;100912.49;111174;1203;138050;-63
2023/08/14 01:19:39;;;;;;;7.70;3.30;;;;;;;21.07;58.23;100916.09;111264;1206;98945;-63
2023/08/14 01:22:09;;;;;;;10.70;3.30;;;;;;;21.04;58.33;100920.39;111129;1203;138228;-63
2023/08/14 01:25:17;;;;;;;7.20;3.10;;;;;;;21.00;58.23;100922.34;111254;1208;99000;-63
2023/08/14 01:27:42;;;;;;;8.80;3.20;;;;;;;20.95;58.48;100913.15;110891;1203;141203;-63
2023/08/14 01:30:08;;;;;;;9.00;3.00;;;;;;;20.92;58.41;100907.05;111248;1208;98973;-64
2023/08/14 01:32:33;;;;;;;4.30;2.40;;;;;;;20.88;58.43;100909.73;111482;1203;99015;-63
2023/08/14 01:34:59;;;;;;;8.50;3.00;;;;;;;20.85;58.48;100913.63;111124;1206;140005;-63
2023/08/14 01:37:44;;;;;;;10.90;3.50;;;;;;;20.81;58.51;100915.92;111256;1208;98928;-63
2023/08/14 01:40:40;;;;;;;14.20;3.40;;;;;;;20.79;58.69;100918.52;111076;1208;138935;-63
2023/08/14 01:43:12;;;;;;;11.90;2.90;;;;;;;20.78;58.63;100918.59;111271;1203;104252;-63
2023/08/14 01:45:40;;;;;;;8.20;3.30;;;;;;;20.77;58.71;100915.95;111177;1219;139326;-63
2023/08/14 01:48:08;;;;;;;6.20;3.50;;;;;;;20.77;58.75;100915.03;111262;1208;99047;-63
2023/08/14 01:50:35;;;;;;;8.40;3.20;;;;;;;20.75;58.88;100912.68;111361;1208;98906;-63
2023/08/14 01:53:01;;;;;;;10.00;3.00;;;;;;;20.75;58.74;100917.02;111107;1209;137931;-63
2023/08/14 01:55:26;;;;;;;10.00;3.20;;;;;;;20.74;58.79;100916.38;111261;1203;99228;-63
2023/08/14 01:57:52;;;;;;;7.80;2.70;;;;;;;20.72;58.92;100913.03;111156;1207;139006;-63
2023/08/14 02:00:18;;;;;;;7.20;2.70;;;;;;;20.70;58.91;100913.02;111248;1208;99012;-63
2023/08/14 02:02:43;;;;;;;9.70;2.90;;;;;;;20.68;58.88;100911.37;111298;1208;99032;-63
2023/08/14 02:05:08;;;;;;;6.20;2.80;;;;;;;20.66;58.98;100905.55;111165;1209;138814;-64
2023/08/14 02:07:34;;;;;;;7.40;3.10;;;;;;;20.64;58.78;100900.45;111201;1203;99136;-63
2023/08/14 02:09:59;;;;;;;4.70;2.50;;;;;;;20.61;58.89;100896.20;111162;1209;138593;-63
2023/08/14 02:12:24;;;;;;;4.50;2.80;;;;;;;20.59;58.86;100896.37;111270;1209;98940;-63
2023/08/14 02:14:49;;;;;;;9.90;3.30;;;;;;;20.56;58.90;100896.80;111272;1209;98950;-63
2023/08/14 02:17:15;;;;;;;8.60;3.10;;;;;;;20.54;59.07;100898.98;111168;1206;138497;-63
2023/08/14 02:19:40;;;;;;;9.70;3.20;;;;;;;20.51;58.78;100900.11;111256;1208;99215;-63
2023/08/14 02:22:05;;;;;;;11.60;3.10;;;;;;;20.47;59.03;100902.44;111190;1203;140429;-63
2023/08/14 02:24:30;;;;;;;7.30;3.50;;;;;;;20.43;59.06;100908.74;111239;1203;99024;-63
2023/08/14 02:26:55;;;;;;;4.90;2.70;;;;;;;20.39;59.06;100914.42;111336;1203;99067;-64
2023/08/14 02:29:21;;;;;;;7.70;3.30;;;;;;;20.36;59.29;100917.25;111099;1209;140055;-63
2023/08/14 02:31:47;;;;;;;6.20;3.00;;;;;;;20.30;59.38;100923.16;111327;1208;98951;-63
2023/08/14 02:34:33;;;;;;;5.40;3.00;;;;;;;20.27;59.50;100923.60;111135;1208;138944;-63
2023/08/14 02:36:58;;;;;;;6.70;2.80;;;;;;;20.23;59.49;100924.76;111286;1209;97864;-63
2023/08/14 02:39:23;;;;;;;9.50;3.00;;;;;;;20.18;59.51;100927.59;111205;1209;99050;-64
2023/08/14 02:41:49;;;;;;;4.30;2.70;;;;;;;20.10;59.74;100924.70;111156;1208;138745;-63
2023/08/14 02:44:14;;;;;;;9.10;3.80;;;;;;;20.05;59.80;100919.69;111164;1208;100629;-63
2023/08/14 02:46:39;;;;;;;8.90;3.10;;;;;;;20.00;59.93;100923.18;111183;1205;139990;-63
2023/08/14 02:49:04;;;;;;;8.40;2.70;;;;;;;19.95;59.98;100921.02;111259;1208;99000;-63
2023/08/14 02:51:30;;;;;;;5.70;3.00;;;;;;;19.92;60.31;100923.85;111165;1206;139358;-63
2023/08/14 02:53:55;;;;;;;10.70;3.90;;;;;;;19.89;60.43;100926.05;111137;1208;98986;-63
2023/08/14 02:56:20;;;;;;;6.20;3.30;;;;;;;19.88;60.39;100919.81;111129;1208;98961;-63
2023/08/14 02:58:45;;;;;;;5.40;3.00;;;;;;;19.85;60.57;100919.11;111072;1208;139659;-63
2023/08/14 03:01:10;;;;;;;10.00;3.20;;;;;;;19.82;60.57;100920.58;111122;1205;98953;-63
2023/08/14 03:03:36;;;;;;;10.70;3.50;;;;;;;19.78;60.79;100919.25;111046;1209;139995;-63
2023/08/14 03:06:01;;;;;;;5.50;2.90;;;;;;;19.77;60.96;100919.90;111087;1205;99042;-63
2023/08/14 03:08:27;;;;;;;6.90;2.90;;;;;;;19.74;61.06;100923.73;111140;1203;99056;-63
2023/08/14 03:10:53;;;;;;;9.20;3.20;;;;;;;19.70;61.13;100923.55;111093;1205;140665;-62
2023/08/14 03:13:18;;;;;;;8.70;3.10;;;;;;;19.69;61.40;100921.27;111222;1209;99028;-62
2023/08/14 03:15:43;;;;;;;4.80;2.70;;;;;;;19.67;61.40;100924.08;111140;1208;138924;-62
2023/08/14 03:18:09;;;;;;;7.80;3.30;;;;;;;19.65;61.45;100927.00;111059;1209;99018;-62
2023/08/14 03:20:34;;;;;;;9.00;2.80;;;;;;;19.62;61.60;100931.36;111116;1205;98970;-62
2023/08/14 03:22:59;;;;;;;6.10;2.80;;;;;;;19.62;61.75;100928.52;111007;1209;139184;-62
2023/08/14 03:25:24;;;;;;;5.60;3.00;;;;;;;19.61;61.84;100929.08;111059;1206;99127;-62
2023/08/14 03:27:49;;;;;;;7.60;3.20;;;;;;;19.62;61.87;100925.80;111089;1205;138995;-63
2023/08/14 03:30:15;;;;;;;8.50;3.10;;;;;;;19.62;61.89;100923.80;111134;1205;99048;-62
2023/08/14 03:32:40;;;;;;;6.50;2.80;;;;;;;19.62;61.91;100920.36;111213;1205;101067;-63
2023/08/14 03:35:05;;;;;;;5.00;2.60;;;;;;;19.61;62.08;100922.40;110947;1217;139410;-63
2023/08/14 03:37:31;;;;;;;8.10;2.80;;;;;;;19.61;62.16;100922.04;111175;1206;98971;-62
2023/08/14 03:39:56;;;;;;;3.90;2.50;;;;;;;19.61;62.25;100922.75;111016;1205;138939;-63
2023/08/14 03:42:21;;;;;;;5.90;3.40;;;;;;;19.61;62.22;100919.52;111081;1209;98936;-63
2023/08/14 03:44:46;;;;;;;10.30;2.90;;;;;;;19.61;62.28;100919.48;111136;1217;98936;-62
2023/08/14 03:47:12;;;;;;;5.70;3.00;;;;;;;19.61;62.37;100926.76;110945;1209;141269;-62
2023/08/14 03:49:37;;;;;;;7.00;3.00;;;;;;;19.61;62.44;100927.13;111143;1208;100313;-61
2023/08/14 03:52:03;;;;;;;5.10;2.30;;;;;;;19.60;62.50;100923.71;110961;1209;140424;-62
2023/08/14 03:54:28;;;;;;;6.80;2.80;;;;;;;19.59;62.53;100922.00;111065;1209;98999;-62
2023/08/14 03:56:53;;;;;;;6.40;2.80;;;;;;;19.56;62.66;100924.07;111217;1208;99091;-62
2023/08/14 03:59:18;;;;;;;8.00;3.00;;;;;;;19.53;62.71;100926.27;110998;1208;138762;-62
2023/08/14 04:01:44;;;;;;;6.60;2.60;;;;;;;19.52;62.73;100927.65;111234;1209;101486;-62
2023/08/14 04:04:10;;;;;;;8.90;2.90;;;;;;;19.51;62.85;100928.09;110954;1209;140768;-63
2023/08/14 04:06:36;;;;;;;10.50;2.50;;;;;;;19.51;63.10;100922.11;111379;1209;99050;-63
2023/08/14 04:09:02;;;;;;;7.70;3.20;;;;;;;19.52;63.12;100918.04;111320;1203;99082;-63
2023/08/14 04:11:27;;;;;;;6.60;2.70;;;;;;;19.53;63.13;100919.38;111233;1205;139392;-62
2023/08/14 04:13:53;;;;;;;6.80;3.10;;;;;;;19.52;63.14;100923.46;111163;1209;99037;-62
2023/08/14 04:16:18;;;;;;;6.90;3.20;;;;;;;19.51;63.27;100917.70;111097;1208;139314;-63
2023/08/14 04:18:43;;;;;;;6.60;2.60;;;;;;;19.52;63.39;100916.92;111122;1209;100084;-62
2023/08/14 04:21:08;;;;;;;6.00;2.70;;;;;;;19.53;63.51;100914.84;111144;1218;97848;-62
2023/08/14 04:23:34;;;;;;;5.30;2.50;;;;;;;19.56;63.46;100916.45;111059;1208;138917;-62
2023/08/14 04:25:59;;;;;;;10.10;3.00;;;;;;;19.57;63.54;100916.41;111179;1208;99511;-62
2023/08/14 04:28:24;;;;;;;4.90;2.50;;;;;;;19.56;63.67;100916.98;111067;1219;140938;-62
2023/08/14 04:30:49;;;;;;;6.20;2.70;;;;;;;19.56;63.69;100916.30;111137;1203;98941;-62
2023/08/14 04:33:16;;;;;;;10.40;3.30;;;;;;;19.55;63.80;100922.18;111259;1209;99576;-62
2023/08/14 04:35:41;;;;;;;6.60;2.90;;;;;;;19.56;63.94;100926.44;111194;1208;138757;-62
2023/08/14 04:38:07;;;;;;;7.50;2.70;;;;;;;19.57;64.06;100932.49;111190;1208;98948;-62
2023/08/14 04:40:32;;;;;;;7.30;2.50;;;;;;;19.61;64.33;100935.30;111049;1215;139391;-62
2023/08/14 04:42:58;;;;;;;11.10;3.60;;;;;;;19.66;64.23;100935.95;111216;1206;99043;-62
2023/08/14 04:45:23;;;;;;;7.50;3.10;;;;;;;19.70;64.15;100936.73;111308;1208;98941;-62
2023/08/14 04:47:48;;;;;;;6.10;3.50;;;;;;;19.75;64.27;100932.55;111117;1203;138455;-62
2023/08/14 04:50:14;;;;;;;8.80;3.20;;;;;;;19.81;64.48;100930.98;111149;1208;99011;-62
2023/08/14 04:52:39;;;;;;;9.20;2.90;;;;;;;19.87;64.54;100928.02;111100;1206;138683;-62
2023/08/14 04:55:06;;;;;;;4.80;2.90;;;;;;;19.94;64.42;100924.38;111266;1209;99034;-62
2023/08/14 04:57:31;;;;;;;11.30;2.60;;;;;;;20.01;64.53;100926.71;111139;1209;140017;-62
2023/08/14 04:59:57;;;;;;;5.10;2.70;;;;;;;20.07;64.25;100926.05;111213;1209;99047;-62
2023/08/14 05:02:23;;;;;;;10.30;3.90;;;;;;;20.14;64.47;100922.84;111115;1216;99064;-62
2023/08/14 05:04:48;;;;;;;8.80;2.60;;;;;;;20.20;64.36;100917.80;111154;1209;140337;-62
2023/08/14 05:07:13;;;;;;;6.40;2.50;;;;;;;20.27;64.57;100917.45;111213;1203;99067;-62
2023/08/14 05:09:38;;;;;;;7.90;2.60;;;;;;;20.34;64.51;100911.61;111099;1209;138914;-62
2023/08/14 05:12:04;;;;;;;6.10;3.20;;;;;;;20.40;64.42;100908.93;111213;1203;99115;-62
2023/08/14 05:14:29;;;;;;;5.60;2.70;;;;;;;20.47;64.37;100908.95;111387;1208;99975;-62
2023/08/14 05:16:55;;;;;;;7.60;2.80;;;;;;;20.54;64.62;100908.02;111089;1206;139049;-62
2023/08/14 05:19:20;;;;;;;6.20;2.90;;;;;;;20.61;64.77;100902.71;111149;1208;99022;-62
2023/08/14 05:21:46;;;;;;;7.60;2.80;;;;;;;20.70;64.70;100905.99;111003;1209;138773;-62
2023/08/14 05:24:14;;;;;;;11.90;3.00;;;;;;;20.79;64.46;100911.23;111204;1208;99009;-62
2023/08/14 05:26:39;;;;;;;4.80;2.60;;;;;;;20.86;64.35;100914.64;111202;1209;100062;-62
2023/08/14 05:29:04;;;;;;;6.30;2.80;;;;;;;20.92;64.43;100916.69;111002;1203;138814;-62
2023/08/14 05:31:30;;;;;;;7.60;2.40;;;;;;;20.97;64.47;100915.13;111104;1208;98852;-62
2023/08/14 05:33:55;;;;;;;5.60;3.30;;;;;;;21.02;64.49;100911.30;111050;1209;138795;-62
2023/08/14 05:36:20;;;;;;;7.30;2.20;;;;;;;21.06;64.32;100911.28;111123;1219;98961;-62
2023/08/14 05:38:45;;;;;;;6.30;3.10;;;;;;;21.11;64.16;100905.68;111212;1208;99069;-62
2023/08/14 05:41:11;;;;;;;8.70;3.20;;;;;;;21.15;64.22;100903.14;111068;1209;139288;-62
2023/08/14 05:43:36;;;;;;;3.10;2.60;;;;;;;21.19;63.98;100900.45;111166;1208;100052;-62
2023/08/14 05:46:01;;;;;;;4.70;2.80;;;;;;;21.23;63.94;100895.58;111077;1209;139724;-63
2023/08/14 05:48:26;;;;;;;8.90;2.60;;;;;;;21.28;64.09;100898.61;111190;1203;99595;-63
2023/08/14 05:50:52;;;;;;;4.90;2.20;;;;;;;21.32;64.12;100897.13;111193;1203;99142;-64
2023/08/14 05:53:17;;;;;;;4.50;2.30;;;;;;;21.38;63.91;100901.05;111195;1203;138429;-63
2023/08/14 05:55:43;;;;;;;6.50;2.60;;;;;;;21.42;63.71;100903.43;111233;1203;99761;-63
2023/08/14 05:58:08;;;;;;;6.90;3.10;;;;;;;21.46;63.77;100899.42;110942;1209;138232;-63
2023/08/14 06:00:38;;;;;;;9.80;3.00;;;;;;;21.49;63.72;100896.98;111156;1209;100441;-63
2023/08/14 06:03:04;;;;;;;3.90;2.50;;;;;;;21.51;63.50;100890.14;111098;1208;100199;-63
2023/08/14 06:05:30;;;;;;;5.30;2.80;;;;;;;21.52;63.47;100893.80;111047;1209;138071;-63
2023/08/14 06:07:56;;;;;;;3.70;2.20;;;;;;;21.56;63.30;100893.52;111181;1209;99008;-63
2023/08/14 06:10:22;;;;;;;5.00;2.90;;;;;;;21.60;63.29;100895.35;111129;1206;138676;-63
2023/08/14 06:12:48;;;;;;;5.80;2.40;;;;;;;21.62;63.23;100898.56;111206;1203;99609;-63
2023/08/14 06:15:16;;;;;;;11.00;3.00;;;;;;;21.66;63.15;100898.77;113460;1203;97023;-63
2023/08/14 06:17:42;;;;;;;5.00;2.30;;;;;;;21.71;63.06;100911.09;113002;1203;139172;-64
2023/08/14 06:20:10;;;;;;;5.80;2.90;;;;;;;21.75;62.95;100915.66;111364;1209;99063;-63
2023/08/14 06:22:40;;;;;;;5.70;2.50;;;;;;;21.80;63.04;100911.63;111088;1209;139610;-63
2023/08/14 06:25:06;;;;;;;7.00;2.80;;;;;;;21.85;63.18;100904.08;111292;1203;98957;-63
2023/08/14 06:27:32;;;;;;;3.40;2.50;;;;;;;21.91;63.19;100907.59;111128;1206;138808;-63
2023/08/14 06:29:57;;;;;;;6.80;2.70;;;;;;;21.97;63.14;100906.48;111243;1203;99453;-64
2023/08/14 06:32:22;;;;;;;4.40;2.50;;;;;;;22.04;63.04;100908.29;111129;1203;99037;-63
2023/08/14 06:34:48;;;;;;;4.10;2.50;;;;;;;22.12;63.07;100912.88;111189;1209;138713;-64
2023/08/14 06:37:13;;;;;;;3.50;2.40;;;;;;;22.18;63.03;100911.11;111187;1204;102560;-63
2023/08/14 06:39:38;;;;;;;4.20;2.60;;;;;;;22.24;62.99;100913.26;111108;1206;140576;-63
2023/08/14 06:42:04;;;;;;;7.10;2.80;;;;;;;22.28;62.96;100910.11;111360;1209;100214;-63
2023/08/14 06:44:29;;;;;;;3.30;2.50;;;;;;;22.33;62.81;100910.63;111241;1204;99021;-63
2023/08/14 06:46:54;;;;;;;5.10;2.80;;;;;;;22.40;62.85;100910.75;111168;1209;138412;-63
2023/08/14 06:49:20;;;;;;;6.30;3.20;;;;;;;22.48;62.97;100911.80;111275;1206;99064;-63
2023/08/14 06:51:45;;;;;;;7.70;3.30;;;;;;;22.56;62.90;100916.55;111155;1209;138922;-63
2023/08/14 06:54:10;;;;;;;7.80;3.30;;;;;;;22.63;62.82;100922.13;111291;1209;99001;-64
2023/08/14 06:56:36;;;;;;;5.00;3.10;;;;;;;22.69;62.66;100917.98;111277;1209;99133;-64
2023/08/14 06:59:01;;;;;;;7.00;3.10;;;;;;;22.74;62.58;100918.98;111199;1208;138008;-64
2023/08/14 07:01:27;;;;;;;4.30;3.00;;;;;;;22.78;62.54;100921.52;111191;1209;104257;-65
2023/08/14 07:03:52;;;;;;;5.80;3.00;;;;;;;22.84;62.46;100919.02;111201;1203;139002;-64
2023/08/14 07:06:17;;;;;;;10.40;3.00;;;;;;;22.88;62.56;100919.35;111093;1209;99248;-65
2023/08/14 07:08:43;;;;;;;7.00;3.20;;;;;;;22.92;62.56;100920.63;111130;1203;98903;-64
2023/08/14 07:11:08;;;;;;;7.90;4.10;;;;;;;22.97;62.56;100920.73;111072;1209;139233;-63
2023/08/14 07:13:33;;;;;;;3.70;2.60;;;;;;;23.03;62.55;100921.52;111209;1203;99731;-64
2023/08/14 07:15:58;;;;;;;5.50;2.70;;;;;;;23.06;62.40;100921.39;111052;1207;139603;-64
2023/08/14 07:18:24;;;;;;;8.40;3.20;;;;;;;23.10;62.33;100922.87;111242;1209;99018;-64
2023/08/14 07:20:49;;;;;;;12.30;3.20;;;;;;;23.16;62.44;100926.68;111225;1209;98960;-63
2023/08/14 07:23:15;;;;;;;9.20;3.30;;;;;;;23.22;62.48;100930.30;110865;1203;138970;-63
2023/08/14 07:25:41;;;;;;;7.40;3.20;;;;;;;23.26;62.31;100934.80;111244;1209;99069;-63
2023/08/14 07:28:06;;;;;;;6.00;3.50;;;;;;;23.30;62.27;100932.76;111060;1203;138328;-63
2023/08/14 07:30:31;;;;;;;7.50;3.50;;;;;;;23.34;62.33;100934.81;111262;1216;98954;-63
2023/08/14 07:32:56;;;;;;;8.30;3.30;;;;;;;23.39;62.28;100936.57;111219;1209;98954;-63
2023/08/14 07:35:22;;;;;;;5.20;3.80;;;;;;;23.45;62.27;100932.65;111145;1203;140051;-62
2023/08/14 07:37:47;;;;;;;5.30;3.50;;;;;;;23.53;62.06;100934.52;111195;1208;99033;-63
2023/08/14 07:40:12;;;;;;;8.70;3.90;;;;;;;23.58;62.06;100928.41;110985;1208;139068;-63
2023/08/14 07:42:38;;;;;;;7.00;3.40;;;;;;;23.61;62.21;100929.91;111219;1203;99071;-63
2023/08/14 07:45:04;;;;;;;7.80;3.30;;;;;;;23.65;62.12;100924.95;111219;1209;98927;-63
2023/08/14 07:47:29;;;;;;;6.80;3.90;;;;;;;23.69;62.19;100920.04;111261;1209;139356;-63
2023/08/14 07:49:54;;;;;;;7.20;3.50;;;;;;;23.75;62.17;100926.23;111176;1206;99040;-62
2023/08/14 07:52:19;;;;;;;8.20;3.90;;;;;;;23.82;62.20;100930.11;111090;1205;139374;-63
2023/08/14 07:54:45;;;;;;;6.00;4.10;;;;;;;23.88;62.14;100928.78;111327;1209;98996;-63
2023/08/14 07:57:10;;;;;;;10.70;3.60;;;;;;;23.95;62.15;100922.12;111179;1209;99621;-63
2023/08/14 07:59:35;;;;;;;11.70;3.90;;;;;;;24.03;62.08;100918.85;111108;1208;140921;-63
2023/08/14 08:02:01;;;;;;;8.80;3.80;;;;;;;24.10;62.08;100923.08;111290;1209;98927;-63
2023/08/14 08:04:29;;;;;;;8.80;4.10;;;;;;;24.18;62.06;100928.34;110847;1212;138219;-63
2023/08/14 08:06:54;;;;;;;5.10;3.60;;;;;;;24.25;61.96;100927.13;110578;1210;99956;-63
2023/08/14 08:09:19;;;;;;;12.70;4.50;;;;;;;24.32;62.01;100925.56;110997;1209;98971;-63
2023/08/14 08:11:45;;;;;;;7.80;4.10;;;;;;;24.37;61.90;100927.27;111034;1209;138847;-63
2023/08/14 08:14:10;;;;;;;7.80;4.20;;;;;;;24.43;61.93;100922.25;111074;1208;102230;-63
2023/08/14 08:16:36;;;;;;;5.80;3.40;;;;;;;24.50;61.91;100923.73;110979;1209;140002;-63
2023/08/14 08:19:05;;;;;;;7.80;4.70;;;;;;;24.55;61.89;100925.15;110845;1207;104292;-64
2023/08/14 08:21:32;;;;;;;9.60;3.80;;;;;;;24.59;61.77;100924.59;111133;1208;138786;-63
2023/08/14 08:23:57;;;;;;;6.90;3.80;;;;;;;24.65;61.88;100923.63;111138;1206;99800;-62
2023/08/14 08:26:23;;;;;;;7.60;4.30;;;;;;;24.69;61.94;100922.14;111145;1209;99024;-62
2023/08/14 08:28:48;;;;;;;10.20;4.60;;;;;;;24.73;61.89;100924.24;111112;1203;138801;-63
2023/08/14 08:31:14;;;;;;;13.60;4.20;;;;;;;24.75;61.76;100927.67;111075;1203;99008;-63
2023/08/14 08:33:39;;;;;;;9.60;3.50;;;;;;;24.78;61.79;100931.64;111073;1204;139379;-64
2023/08/14 08:36:04;;;;;;;9.10;3.70;;;;;;;24.86;61.87;100935.02;111120;1203;100456;-64
2023/08/14 08:38:30;;;;;;;13.00;3.70;;;;;;;24.94;61.98;100930.21;111232;1209;99031;-63
2023/08/14 08:40:56;;;;;;;5.90;3.60;;;;;;;25.01;61.75;100935.06;111025;1209;138837;-63
2023/08/14 08:43:22;;;;;;;5.80;3.00;;;;;;;25.07;61.83;100930.29;111175;1203;99024;-63
2023/08/14 08:45:50;;;;;;;10.30;4.00;;;;;;;25.11;61.85;100928.56;111088;1206;138730;-63
2023/08/14 08:48:20;;;;;;;5.20;3.50;;;;;;;25.16;61.87;100925.53;111470;1203;99040;-63
2023/08/14 08:50:46;;;;;;;;;;;;;;;25.22;61.78;100926.67;111287;1209;101508;-64
2023/08/14 08:53:12;;;;;;;9.50;4.10;;;;;;;25.28;61.90;100923.75;111054;1203;124706;-64
2023/08/14 08:55:38;;;;;;;8.60;4.10;;;;;;;25.34;61.84;100921.14;111293;1209;98953;-62
2023/08/14 08:58:04;;;;;;;5.50;3.70;;;;;;;25.40;61.88;100921.94;111019;1216;139630;-63
2023/08/14 09:00:29;;;;;;;15.40;4.20;;;;;;;25.46;61.80;100925.33;111165;1216;99911;-63
2023/08/14 09:02:55;;;;;;;9.10;4.10;;;;;;;25.55;61.60;100929.73;111326;1209;99005;-62
2023/08/14 09:05:20;;;;;;;12.10;4.10;;;;;;;25.62;61.67;100931.41;111154;1203;138561;-63
2023/08/14 09:07:46;;;;;;;6.00;3.90;;;;;;;25.67;61.53;100930.44;111369;1209;99060;-63
2023/08/14 09:10:11;;;;;;;7.90;3.80;;;;;;;25.68;61.38;100926.09;111142;1209;138120;-63
2023/08/14 09:12:36;;;;;;;7.10;3.70;;;;;;;25.71;61.33;100927.11;111236;1206;100043;-62
2023/08/14 09:15:07;;;;;;;5.90;3.30;;;;;;;25.74;61.36;100924.53;111175;1219;101071;-63
2023/08/14 09:17:33;;;;;;;10.30;4.40;;;;;;;25.79;61.30;100921.86;111017;1206;138250;-61
2023/08/14 09:19:58;;;;;;;6.70;3.90;;;;;;;25.83;61.40;100922.35;111109;1208;99034;-62
2023/08/14 09:22:27;;;;;;;10.80;3.90;;;;;;;25.86;61.16;100916.85;111075;1209;138436;-62
2023/08/14 09:24:53;;;;;;;5.60;3.90;;;;;;;25.89;61.21;100916.91;111127;1208;100246;-62
2023/08/14 09:27:19;;;;;;;7.60;4.40;;;;;;;25.91;61.33;100915.14;111322;1203;99048;-61
2023/08/14 09:29:44;;;;;;;7.30;3.90;;;;;;;25.95;61.10;100912.66;111138;1209;138328;-62
2023/08/14 09:32:10;;;;;;;7.00;4.20;;;;;;;26.01;61.23;100905.55;111142;1207;98980;-62
2023/08/14 09:34:36;;;;;;;4.10;3.40;;;;;;;26.09;61.00;100906.90;111069;1218;137963;-62
2023/08/14 09:37:04;;;;;;;8.10;4.10;;;;;;;26.12;60.86;100909.16;111346;1203;98972;-61
2023/08/14 09:39:29;;;;;;;20.90;4.20;;;;;;;26.18;60.84;100910.36;111185;1209;138728;-61
2023/08/14 09:41:55;;;;;;;4.70;3.70;;;;;;;26.26;60.94;100910.66;111224;1203;99012;-61
2023/08/14 09:44:23;;;;;;;7.30;4.00;;;;;;;26.29;60.65;100913.98;111477;1209;99050;-61
2023/08/14 09:46:54;;;;;;;6.30;4.10;;;;;;;26.33;60.69;100916.58;111043;1209;138538;-61
2023/08/14 09:49:20;;;;;;;7.00;3.70;;;;;;;26.37;60.64;100911.93;111860;1208;99487;-61
2023/08/14 09:51:58;;;;;;;4.80;4.00;;;;;;;26.40;60.35;100913.16;110759;1207;138146;-60
2023/08/14 09:54:31;;;;;;;9.00;3.80;;;;;;;26.45;60.40;100912.45;110849;1203;99563;-61
2023/08/14 09:56:59;;;;;;;5.80;4.00;;;;;;;26.51;60.28;100913.98;110825;1209;99174;-61
2023/08/14 09:59:25;;;;;;;7.90;3.20;;;;;;;26.57;60.27;100917.25;110720;1209;138001;-62
2023/08/14 10:01:53;;;;;;;4.60;3.80;;;;;;;26.64;60.30;100915.42;110794;1215;100187;-62
2023/08/14 10:04:20;;;;;;;7.90;3.70;;;;;;;26.72;60.18;100915.05;110737;1209;138227;-62
2023/08/14 10:06:46;;;;;;;8.40;4.00;;;;;;;26.80;59.83;100911.63;110786;1203;99375;-62
2023/08/14 10:09:12;;;;;;;7.20;3.70;;;;;;;26.84;59.67;100912.70;110855;1208;99048;-62
2023/08/14 10:11:38;;;;;;;9.30;3.90;;;;;;;26.87;59.60;100908.97;111383;1208;138747;-62
2023/08/14 10:14:06;;;;;;;6.60;3.70;;;;;;;26.92;59.53;100912.74;110799;1203;99381;-62
2023/08/14 10:16:38;;;;;;;5.30;3.50;;;;;;;27.02;59.26;100915.38;110940;1203;139735;-62
2023/08/14 10:19:07;;;;;;;10.50;4.10;;;;;;;27.10;59.07;100916.63;110738;1208;99547;-63
2023/08/14 10:21:34;;;;;;;5.50;3.50;;;;;;;27.18;58.71;100916.75;110689;1209;138422;-61
2023/08/14 10:24:02;;;;;;;7.50;3.60;;;;;;;27.18;58.03;100907.98;110920;1209;99116;-61
2023/08/14 10:26:28;;;;;;;7.50;3.60;;;;;;;27.18;57.80;100908.08;110798;1209;104352;-62
2023/08/14 10:28:58;;;;;;;7.10;4.00;;;;;;;27.27;57.67;100906.54;110973;1209;138442;-62
2023/08/14 10:31:27;;;;;;;7.80;3.70;;;;;;;27.39;57.85;100906.11;110882;1209;100242;-62
2023/08/14 10:33:54;;;;;;;7.70;3.20;;;;;;;27.56;57.62;100906.00;110684;1208;138520;-62
2023/08/14 10:36:20;;;;;;;4.20;3.30;;;;;;;27.64;57.48;100905.29;110857;1207;100249;-62
2023/08/14 10:38:46;;;;;;;6.70;3.30;;;;;;;27.72;57.18;100898.96;111060;1208;100334;-63
2023/08/14 10:41:16;;;;;;;5.50;3.10;;;;;;;27.82;56.73;100898.58;111131;1209;138435;-63
2023/08/14 10:43:42;;;;;;;5.80;2.80;;;;;;;27.93;56.29;100889.45;110935;1209;99101;-62
2023/08/14 10:46:14;;;;;;;8.20;3.20;;;;;;;28.05;55.83;100889.92;111031;1203;139898;-62
2023/08/14 10:48:41;;;;;;;2.90;2.70;;;;;;;28.14;54.86;100891.88;110802;1209;106434;-62
2023/08/14 10:51:12;;;;;;;6.50;2.50;;;;;;;28.20;54.54;100890.45;111026;1208;99054;-62
2023/08/14 10:53:40;;;;;;;3.50;2.70;;;;;;;28.27;54.18;100886.34;110709;1208;138781;-62
2023/08/14 10:56:06;;;;;;;7.70;2.90;;;;;;;28.37;53.73;100886.56;110885;1217;99178;-62
2023/08/14 10:58:31;;;;;;;4.50;2.90;;;;;;;28.45;53.18;100885.83;110715;1209;138215;-62
2023/08/14 11:00:58;;;;;;;6.10;3.10;;;;;;;28.57;52.81;100885.23;111015;1209;99049;-62
2023/08/14 11:03:24;;;;;;;5.20;2.70;;;;;;;28.65;52.28;100888.30;111095;1204;101210;-61
2023/08/14 11:05:50;;;;;;;6.30;2.60;;;;;;;28.69;52.02;100887.02;110799;1209;99239;-62
2023/08/14 11:08:16;;;;;;;7.60;2.30;;;;;;;28.76;51.87;100886.38;111093;1208;99325;-61